createdAt,value
2022-08-01T00:02:37.489Z,18.04
2022-08-01T00:07:42.407Z,18.00
2022-08-01T00:12:51.406Z,18.00
2022-08-01T00:17:56.719Z,18.00
2022-08-01T00:22:58.442Z,17.98
2022-08-01T00:28:00.189Z,17.96
2022-08-01T00:33:05.810Z,17.95
2022-08-01T00:38:10.029Z,17.92
2022-08-01T00:43:11.794Z,17.89
2022-08-01T00:48:15.804Z,17.84
2022-08-01T00:53:18.977Z,17.80
2022-08-01T00:58:24.169Z,17.78
2022-08-01T01:09:19.637Z,17.71
2022-08-01T01:14:33.842Z,17.70
2022-08-01T01:19:41.019Z,17.64
2022-08-01T01:25:20.541Z,17.62
2022-08-01T01:30:23.786Z,17.57
2022-08-01T01:35:28.271Z,17.53
2022-08-01T01:40:34.150Z,17.52
2022-08-01T01:45:36.877Z,17.50
2022-08-01T01:50:38.692Z,17.49
2022-08-01T01:55:49.338Z,17.48
2022-08-01T02:00:58.826Z,17.46
2022-08-01T02:06:09.842Z,17.43
2022-08-01T02:11:20.704Z,17.44
2022-08-01T02:16:25.927Z,17.40
2022-08-01T02:21:38.836Z,17.35
2022-08-01T02:26:43.275Z,17.29
2022-08-01T02:31:55.678Z,17.23
2022-08-01T02:36:58.390Z,17.22
2022-08-01T02:42:05.323Z,17.18
2022-08-01T02:47:13.840Z,17.16
2022-08-01T02:52:21.011Z,17.10
2022-08-01T02:57:25.595Z,17.05
2022-08-01T03:02:36.030Z,17.01
2022-08-01T03:07:40.988Z,16.95
2022-08-01T03:12:49.447Z,16.92
2022-08-01T03:17:52.583Z,16.85
2022-08-01T03:22:57.201Z,16.83
2022-08-01T03:28:03.061Z,16.81
2022-08-01T03:33:04.856Z,16.78
2022-08-01T03:38:16.263Z,16.76
2022-08-01T03:43:39.296Z,16.70
2022-08-01T03:48:49.867Z,16.64
2022-08-01T03:53:52.655Z,16.62
2022-08-01T03:58:56.691Z,16.56
2022-08-01T04:04:00.765Z,16.51
2022-08-01T04:09:13.305Z,16.45
2022-08-01T04:14:15.962Z,16.43
2022-08-01T04:19:20.004Z,16.42
2022-08-01T04:24:26.060Z,16.40
2022-08-01T04:29:33.456Z,16.35
2022-08-01T04:34:35.926Z,16.36
2022-08-01T04:39:51.115Z,16.29
2022-08-01T04:44:53.282Z,16.26
2022-08-01T04:49:57.639Z,16.25
2022-08-01T04:55:01.864Z,16.30
2022-08-01T05:00:09.417Z,16.31
2022-08-01T05:05:13.619Z,16.34
2022-08-01T05:10:15.487Z,16.29
2022-08-01T05:15:20.549Z,16.17
2022-08-01T05:20:27.335Z,16.04
2022-08-01T05:25:56.368Z,16.02
2022-08-01T05:30:56.526Z,15.98
2022-08-01T05:35:58.232Z,15.98
2022-08-01T05:41:00.319Z,16.00
2022-08-01T05:46:04.260Z,16.04
2022-08-01T05:51:06.113Z,16.21
2022-08-01T05:56:10.097Z,16.25
2022-08-01T06:01:15.229Z,16.32
2022-08-01T06:06:17.139Z,16.43
2022-08-01T06:11:21.207Z,16.58
2022-08-01T06:16:24.269Z,16.65
2022-08-01T06:21:26.350Z,16.77
2022-08-01T06:26:30.665Z,17.05
2022-08-01T06:31:33.971Z,17.31
2022-08-01T06:36:40.238Z,17.50
2022-08-01T06:41:47.932Z,17.56
2022-08-01T06:46:50.313Z,17.44
2022-08-01T06:51:55.328Z,17.40
2022-08-01T06:56:59.333Z,17.38
2022-08-01T07:02:03.738Z,17.29
2022-08-01T07:07:06.228Z,17.33
2022-08-01T07:12:09.086Z,17.44
2022-08-01T07:17:13.065Z,17.69
2022-08-01T07:22:23.444Z,17.94
2022-08-01T07:27:29.420Z,18.03
2022-08-01T07:32:35.212Z,18.04
2022-08-01T07:37:48.606Z,18.17
2022-08-01T07:42:51.557Z,18.29
2022-08-01T07:47:54.569Z,18.51
2022-08-01T07:53:01.111Z,18.76
2022-08-01T07:58:05.073Z,18.87
2022-08-01T08:03:07.622Z,18.85
2022-08-01T08:08:12.920Z,18.75
2022-08-01T08:13:15.299Z,18.45
2022-08-01T08:18:17.676Z,18.30
2022-08-01T08:23:42.008Z,18.55
2022-08-01T08:28:48.034Z,18.94
2022-08-01T08:33:55.318Z,19.04
2022-08-01T08:38:57.818Z,18.88
2022-08-01T08:44:06.410Z,18.97
2022-08-01T08:49:36.191Z,19.10
2022-08-01T08:54:42.769Z,19.44
2022-08-01T08:59:46.056Z,19.42
2022-08-01T09:04:51.191Z,19.52
2022-08-01T09:10:01.558Z,19.28
2022-08-01T09:15:10.526Z,19.60
2022-08-01T09:20:27.299Z,19.96
2022-08-01T09:25:46.151Z,20.17
2022-08-01T09:30:54.168Z,19.85
2022-08-01T09:35:58.795Z,19.70
2022-08-01T09:41:02.662Z,19.97
2022-08-01T09:46:15.240Z,20.00
2022-08-01T09:51:57.892Z,20.09
2022-08-01T09:57:09.925Z,20.05
2022-08-01T10:02:37.897Z,19.96
2022-08-01T10:08:02.761Z,20.16
2022-08-01T10:13:10.540Z,20.11
2022-08-01T10:18:16.147Z,20.32
2022-08-01T10:23:23.805Z,20.23
2022-08-01T10:28:54.135Z,20.26
2022-08-01T10:33:58.202Z,20.46
2022-08-01T10:39:05.252Z,20.44
2022-08-01T10:44:08.959Z,20.42
2022-08-01T10:49:16.972Z,20.46
2022-08-01T10:54:18.723Z,20.48
2022-08-01T10:59:51.161Z,20.58
2022-08-01T11:05:09.563Z,20.87
2022-08-01T11:10:24.273Z,21.17
2022-08-01T11:15:29.401Z,21.47
2022-08-01T11:20:42.099Z,21.32
2022-08-01T11:26:03.973Z,21.71
2022-08-01T11:31:11.712Z,21.77
2022-08-01T11:36:36.910Z,21.64
2022-08-01T11:41:47.537Z,21.78
2022-08-01T11:47:10.928Z,21.82
2022-08-01T11:52:25.093Z,21.97
2022-08-01T11:57:39.291Z,22.30
2022-08-01T12:02:45.605Z,22.59
2022-08-01T12:07:56.080Z,22.51
2022-08-01T12:13:04.195Z,22.91
2022-08-01T12:18:09.315Z,22.37
2022-08-01T12:23:17.455Z,22.89
2022-08-01T12:28:25.550Z,23.61
2022-08-01T12:33:27.978Z,24.24
2022-08-01T12:38:31.084Z,24.52
2022-08-01T12:43:33.035Z,24.97
2022-08-01T12:48:39.960Z,24.98
2022-08-01T12:53:47.206Z,24.97
2022-08-01T12:58:52.660Z,24.91
2022-08-01T13:04:05.246Z,25.58
2022-08-01T13:09:11.494Z,25.67
2022-08-01T13:14:30.736Z,25.85
2022-08-01T13:19:45.699Z,25.82
2022-08-01T13:24:49.480Z,25.70
2022-08-01T13:29:57.824Z,26.14
2022-08-01T13:35:07.491Z,26.36
2022-08-01T13:40:12.913Z,26.64
2022-08-01T13:45:15.205Z,25.40
2022-08-01T13:50:17.066Z,25.39
2022-08-01T13:55:21.085Z,26.29
2022-08-01T14:00:27.318Z,26.17
2022-08-01T14:05:31.302Z,25.17
2022-08-01T14:10:34.041Z,24.52
2022-08-01T14:15:39.881Z,24.90
2022-08-01T14:20:42.807Z,24.81
2022-08-01T14:26:05.570Z,26.43
2022-08-01T14:31:10.421Z,26.86
2022-08-01T14:36:30.155Z,27.28
2022-08-01T14:41:35.491Z,28.92
2022-08-01T14:46:57.190Z,27.81
2022-08-01T14:52:02.124Z,28.41
2022-08-01T14:57:07.084Z,29.97
2022-08-01T15:02:12.263Z,30.84
2022-08-01T15:07:19.583Z,31.50
2022-08-01T15:12:23.597Z,31.59
2022-08-01T15:17:30.328Z,30.79
2022-08-01T15:22:36.816Z,30.94
2022-08-01T15:27:41.206Z,31.94
2022-08-01T15:32:47.832Z,32.98
2022-08-01T15:37:55.266Z,33.51
2022-08-01T15:43:01.337Z,32.90
2022-08-01T15:48:05.935Z,33.62
2022-08-01T15:53:10.805Z,34.39
2022-08-01T15:58:12.821Z,34.60
2022-08-01T16:03:14.591Z,35.03
2022-08-01T16:08:21.221Z,34.82
2022-08-01T16:13:25.552Z,34.95
2022-08-01T16:18:27.235Z,34.82
2022-08-01T16:23:34.301Z,33.96
2022-08-01T16:28:38.381Z,33.99
2022-08-01T16:33:50.790Z,34.67
2022-08-01T16:38:57.177Z,34.90
2022-08-01T16:43:59.338Z,34.88
2022-08-01T16:49:01.425Z,34.85
2022-08-01T16:54:24.846Z,34.57
2022-08-01T16:59:31.917Z,33.70
2022-08-01T17:04:38.454Z,32.18
2022-08-01T17:09:43.790Z,29.99
2022-08-01T17:14:46.874Z,27.82
2022-08-01T17:19:49.806Z,26.47
2022-08-01T17:24:52.287Z,25.68
2022-08-01T17:30:00.732Z,24.96
2022-08-01T17:35:03.006Z,24.49
2022-08-01T17:40:37.474Z,23.43
2022-08-01T17:45:47.623Z,22.81
2022-08-01T17:50:52.162Z,22.40
2022-08-01T17:56:01.561Z,22.08
2022-08-01T18:01:05.839Z,21.53
2022-08-01T18:06:07.860Z,21.29
2022-08-01T18:11:10.017Z,21.06
2022-08-01T18:16:17.375Z,20.94
2022-08-01T18:21:25.847Z,20.81
2022-08-01T18:26:30.023Z,20.52
2022-08-01T18:31:31.759Z,20.38
2022-08-01T18:36:34.404Z,20.15
2022-08-01T18:41:38.974Z,19.98
2022-08-01T18:46:40.817Z,19.66
2022-08-01T18:51:44.990Z,19.47
2022-08-01T18:56:46.948Z,19.25
2022-08-01T19:01:51.110Z,19.08
2022-08-01T19:07:09.079Z,19.45
2022-08-01T19:12:11.101Z,18.91
2022-08-01T19:17:14.688Z,19.17
2022-08-01T19:22:18.742Z,19.06
2022-08-01T19:27:26.476Z,18.41
2022-08-01T19:32:32.944Z,18.06
2022-08-01T19:37:45.728Z,17.79
2022-08-01T19:42:50.002Z,17.57
2022-08-01T19:47:58.157Z,17.39
2022-08-01T19:53:05.252Z,17.20
2022-08-01T19:58:26.978Z,16.97
2022-08-01T20:03:33.222Z,16.80
2022-08-01T20:08:37.914Z,16.64
2022-08-01T20:13:42.291Z,16.53
2022-08-01T20:18:46.355Z,16.36
2022-08-01T20:23:50.602Z,16.22
2022-08-01T20:28:53.432Z,16.13
2022-08-01T20:33:56.462Z,16.02
2022-08-01T20:38:59.077Z,15.92
2022-08-01T20:44:00.817Z,15.99
2022-08-01T20:49:05.257Z,15.93
2022-08-01T20:54:10.804Z,15.80
2022-08-01T20:59:40.150Z,15.68
2022-08-01T21:04:55.042Z,15.54
2022-08-01T21:10:07.964Z,15.40
2022-08-01T21:15:15.371Z,15.29
2022-08-01T21:20:22.478Z,15.21
2022-08-01T21:25:35.708Z,15.15
2022-08-01T21:30:40.856Z,15.00
2022-08-01T21:35:52.233Z,14.90
2022-08-01T21:40:58.421Z,14.86
2022-08-01T21:46:04.299Z,14.79
2022-08-01T21:51:16.968Z,14.77
2022-08-01T21:57:02.013Z,14.69
2022-08-01T22:02:30.918Z,14.57
2022-08-01T22:07:42.304Z,14.51
2022-08-01T22:12:45.196Z,14.41
2022-08-01T22:17:52.561Z,14.31
2022-08-01T22:22:59.123Z,14.21
2022-08-01T22:28:09.407Z,14.14
2022-08-01T22:33:17.269Z,14.06
2022-08-01T22:38:24.110Z,14.00
2022-08-01T22:43:53.814Z,14.00
2022-08-01T22:49:08.985Z,13.92
2022-08-01T22:54:13.488Z,13.90
2022-08-01T22:59:41.812Z,13.88
2022-08-01T23:04:49.257Z,13.81
2022-08-01T23:09:57.343Z,13.73
2022-08-01T23:15:02.392Z,13.62
2022-08-01T23:20:11.248Z,13.57
2022-08-01T23:25:20.954Z,13.49
2022-08-01T23:30:28.016Z,13.41
2022-08-01T23:35:35.581Z,13.32
2022-08-01T23:40:43.516Z,13.23
2022-08-01T23:46:04.098Z,13.14
2022-08-01T23:51:07.180Z,13.09
2022-08-01T23:56:09.157Z,13.04
